Time;durP1;ratioP1;P1;durP2;ratioP2;P2;SDS_P1;SDS_P2;PMS_P1;PMS_P2;Temp;Humidity;BMP_temperature;BMP_pressure;BME280_temperature;BME280_humidity;BME280_pressure;Samples;Min_cycle;Max_cycle;Signal;HPM_P1;HPM_P2
2024/02/02 00:00:12;;;;;;;9.70;5.13;;;;;;;9.62;76.22;102119.91;2086993;28;21090;-67
2024/02/02 00:01:12;;;;;;;8.53;5.37;;;;;;;9.18;75.85;102047.41;2086885;28;20193;-67
2024/02/02 00:02:13;;;;;;;9.50;5.30;;;;;;;9.18;74.99;102050.16;2086353;28;20432;-67
2024/02/02 00:03:13;;;;;;;11.53;5.53;;;;;;;9.58;74.88;102108.81;2087041;28;20235;-67
2024/02/02 00:04:14;;;;;;;9.87;5.40;;;;;;;9.46;73.57;102081.50;2088721;28;20663;-67
2024/02/02 00:05:15;;;;;;;8.23;5.20;;;;;;;9.61;72.43;102102.50;2086637;28;20228;-67
2024/02/02 00:06:15;;;;;;;8.80;5.43;;;;;;;9.61;71.82;102104.47;2085709;28;20224;-67
2024/02/02 00:07:16;;;;;;;9.63;5.97;;;;;;;9.63;70.90;102099.38;2086288;28;20246;-67
2024/02/02 00:08:16;;;;;;;10.53;6.53;;;;;;;9.57;69.14;102104.47;2085933;28;20654;-67
2024/02/02 00:09:17;;;;;;;10.67;6.03;;;;;;;9.57;69.16;102098.13;2086843;28;20172;-67
2024/02/02 00:10:18;;;;;;;11.47;5.73;;;;;;;8.98;68.34;102018.47;2088890;28;20193;-67
2024/02/02 00:11:18;;;;;;;10.20;5.93;;;;;;;9.56;67.92;102132.53;2086831;28;20191;-67
2024/02/02 00:12:19;;;;;;;10.20;5.60;;;;;;;9.48;67.39;102089.41;2086047;28;20581;-67
2024/02/02 00:13:20;;;;;;;11.23;6.50;;;;;;;9.60;67.20;102086.28;2086298;28;20550;-67
2024/02/02 00:14:20;;;;;;;10.97;5.80;;;;;;;9.55;67.19;102089.44;2086014;28;20187;-67
2024/02/02 00:15:21;;;;;;;10.80;5.60;;;;;;;9.24;67.09;102054.13;2086204;28;20270;-67
2024/02/02 00:16:22;;;;;;;9.83;5.50;;;;;;;9.49;67.22;102088.25;2088906;28;20187;-67
2024/02/02 00:17:23;;;;;;;8.17;5.37;;;;;;;9.05;67.61;102021.25;2085341;28;20207;-67
2024/02/02 00:18:23;;;;;;;10.27;5.27;;;;;;;9.48;67.71;102084.66;2085996;28;20243;-67
2024/02/02 00:19:24;;;;;;;9.50;5.77;;;;;;;9.12;68.02;102032.38;2086251;28;20215;-67
2024/02/02 00:20:24;;;;;;;11.43;5.60;;;;;;;9.39;68.13;102077.91;2086398;28;20214;-67
2024/02/02 00:21:25;;;;;;;10.83;5.53;;;;;;;9.33;69.40;102077.47;2086818;28;20462;-67
2024/02/02 00:22:26;;;;;;;10.97;5.53;;;;;;;9.32;70.10;102086.19;2089050;28;20187;-67
2024/02/02 00:23:26;;;;;;;8.33;5.33;;;;;;;8.86;70.92;102021.56;2087138;28;20253;-67
2024/02/02 00:24:27;;;;;;;8.93;5.03;;;;;;;9.23;71.76;102083.75;2085741;28;20661;-67
2024/02/02 00:25:27;;;;;;;9.63;5.10;;;;;;;9.11;72.09;102072.25;2086477;28;20296;-67
2024/02/02 00:26:28;;;;;;;11.27;5.57;;;;;;;9.25;72.50;102086.94;2086526;28;20226;-67
2024/02/02 00:27:28;;;;;;;10.10;5.27;;;;;;;9.15;72.56;102064.75;2086122;28;20272;-67
2024/02/02 00:28:29;;;;;;;10.70;6.33;;;;;;;8.51;73.00;101968.84;2087482;28;20634;-67
2024/02/02 00:29:29;;;;;;;8.37;5.33;;;;;;;9.21;73.40;102083.38;2086216;28;20202;-67
2024/02/02 00:30:36;;;;;;;11.17;5.67;;;;;;;9.26;73.45;102082.19;2086037;28;20196;-67
2024/02/02 00:31:37;;;;;;;10.07;5.70;;;;;;;9.22;73.82;102086.94;2086242;28;20199;-67
2024/02/02 00:32:43;;;;;;;9.60;5.93;;;;;;;9.21;73.89;102090.88;2087102;28;20450;-67
2024/02/02 00:33:44;;;;;;;8.23;4.97;;;;;;;9.19;74.19;102085.75;2086126;28;20170;-67
2024/02/02 00:34:44;;;;;;;11.83;5.80;;;;;;;9.10;74.70;102085.28;2086048;28;20455;-67
2024/02/02 00:35:45;;;;;;;8.27;5.60;;;;;;;9.14;74.36;102090.84;2088271;28;20258;-67
2024/02/02 00:36:46;;;;;;;10.50;5.30;;;;;;;9.13;74.64;102090.03;2085968;28;20197;-67
2024/02/02 00:37:46;;;;;;;8.00;5.47;;;;;;;9.14;74.83;102086.13;2086551;28;20675;-67
2024/02/02 00:38:47;;;;;;;13.80;6.57;;;;;;;9.16;74.99;102085.69;2085097;28;20238;-67
2024/02/02 00:39:48;;;;;;;13.33;6.23;;;;;;;8.88;75.53;102058.72;2086706;28;20194;-67
2024/02/02 00:40:48;;;;;;;10.70;6.20;;;;;;;9.11;75.71;102095.16;2085457;28;20207;-67
2024/02/02 00:41:49;;;;;;;9.27;5.73;;;;;;;9.13;75.59;102094.78;2088279;28;20191;-67
2024/02/02 00:42:50;;;;;;;9.83;5.43;;;;;;;9.11;76.31;102091.59;2085765;28;20731;-67
2024/02/02 00:43:50;;;;;;;9.60;6.10;;;;;;;9.11;76.05;102088.84;2086962;28;20190;-67
2024/02/02 00:44:51;;;;;;;11.57;6.27;;;;;;;9.07;76.58;102094.34;2085283;28;20203;-67
2024/02/02 00:45:51;;;;;;;12.73;6.37;;;;;;;9.07;77.24;102097.13;2086804;28;20639;-67
2024/02/02 00:46:52;;;;;;;11.27;6.20;;;;;;;8.16;77.50;101966.59;2085827;28;20237;-67
2024/02/02 00:47:53;;;;;;;13.23;6.03;;;;;;;8.94;78.23;102100.59;2088930;28;20180;-67
2024/02/02 00:48:53;;;;;;;12.20;6.43;;;;;;;8.83;78.34;102091.44;2085976;28;20636;-67
2024/02/02 00:49:54;;;;;;;7.67;5.17;;;;;;;8.93;79.00;102088.75;2085505;28;20271;-67
2024/02/02 00:50:54;;;;;;;11.17;5.77;;;;;;;9.03;78.55;102101.81;2085672;28;20195;-67
2024/02/02 00:51:55;;;;;;;10.87;6.07;;;;;;;9.01;78.49;102101.44;2085869;28;20184;-67
2024/02/02 00:52:55;;;;;;;11.73;6.27;;;;;;;9.04;79.55;102113.69;2086080;28;20750;-67
2024/02/02 00:53:56;;;;;;;10.20;6.13;;;;;;;9.00;79.55;102097.09;2088202;28;20199;-67
2024/02/02 00:54:56;;;;;;;9.37;6.37;;;;;;;9.04;80.83;102102.63;2086528;28;20668;-67
2024/02/02 00:55:57;;;;;;;12.60;6.90;;;;;;;9.09;81.30;102105.03;2085912;28;20357;-67
2024/02/02 00:56:57;;;;;;;11.20;6.70;;;;;;;9.01;81.88;102100.63;2084897;28;20597;-67
2024/02/02 00:57:58;;;;;;;11.43;7.10;;;;;;;7.98;82.16;101937.28;2086255;28;20192;-67
2024/02/02 00:58:59;;;;;;;9.87;5.57;;;;;;;8.93;83.68;102107.31;2086533;28;20222;-67
2024/02/02 01:00:00;;;;;;;9.67;5.87;;;;;;;8.96;84.31;102112.84;2088498;28;20187;-67
2024/02/02 01:01:00;;;;;;;12.73;6.87;;;;;;;8.92;84.87;102109.28;2086815;28;20225;-67
2024/02/02 01:02:01;;;;;;;11.53;5.90;;;;;;;8.92;85.57;102109.28;2086789;28;20277;-67
2024/02/02 01:03:02;;;;;;;11.23;6.47;;;;;;;8.95;85.95;102104.94;2085927;28;20187;-67
2024/02/02 01:04:03;;;;;;;11.27;6.27;;;;;;;8.97;86.10;102111.66;2086075;28;20192;-67
2024/02/02 01:05:04;;;;;;;11.80;6.23;;;;;;;8.97;86.06;102117.19;2087388;28;20687;-67
2024/02/02 01:06:05;;;;;;;11.07;6.73;;;;;;;8.90;87.00;102094.25;2088427;28;20583;-67
2024/02/02 01:07:05;;;;;;;11.57;6.43;;;;;;;8.96;87.42;102117.59;2085237;28;20650;-67
2024/02/02 01:08:06;;;;;;;11.27;6.30;;;;;;;8.98;88.24;102109.72;2086361;28;20596;-67
2024/02/02 01:09:06;;;;;;;11.47;6.60;;;;;;;8.98;88.38;102110.50;2086689;28;20275;-67
2024/02/02 01:10:10;;;;;;;12.00;6.97;;;;;;;9.02;88.97;102105.00;2086105;28;20214;-67
2024/02/02 01:11:11;;;;;;;14.73;7.23;;;;;;;8.97;89.80;102106.13;2085181;28;20185;-67
2024/02/02 01:12:12;;;;;;;12.17;6.93;;;;;;;8.99;90.78;102109.34;2087711;28;20438;-67
2024/02/02 01:13:12;;;;;;;11.20;6.23;;;;;;;8.85;91.04;102094.59;2085443;28;20192;-67
2024/02/02 01:14:13;;;;;;;10.57;6.57;;;;;;;8.95;92.12;102102.97;2085348;28;20212;-67
2024/02/02 01:15:17;;;;;;;11.17;6.37;;;;;;;8.97;92.32;102105.38;2086061;28;20194;-67
2024/02/02 01:16:17;;;;;;;10.57;5.97;;;;;;;8.59;92.94;102048.66;2086356;28;20237;-67
2024/02/02 01:17:18;;;;;;;12.07;6.10;;;;;;;8.97;93.45;102095.09;2084589;28;20453;-67
2024/02/02 01:18:19;;;;;;;12.87;6.10;;;;;;;8.89;93.42;102071.34;2088156;28;20271;-67
2024/02/02 01:19:20;;;;;;;12.20;6.83;;;;;;;9.06;93.72;102101.06;2085037;28;20283;-67
2024/02/02 01:20:21;;;;;;;12.60;7.13;;;;;;;9.05;94.43;102093.97;2085646;28;20707;-67
2024/02/02 01:21:21;;;;;;;11.60;6.77;;;;;;;8.99;95.04;102092.75;2086451;28;20860;-67
2024/02/02 01:22:22;;;;;;;12.10;7.30;;;;;;;8.97;96.10;102086.00;2085303;28;20207;-67
2024/02/02 01:23:22;;;;;;;13.27;7.03;;;;;;;8.97;96.63;102086.00;2085564;28;20181;-67
2024/02/02 01:24:23;;;;;;;12.57;7.40;;;;;;;8.97;97.17;102084.03;2088163;28;20559;-67
2024/02/02 01:25:24;;;;;;;14.17;6.20;;;;;;;8.98;97.35;102093.13;2085586;28;21140;-68
2024/02/02 01:26:24;;;;;;;14.03;6.67;;;;;;;9.01;97.88;102092.31;2086534;28;20326;-67
2024/02/02 01:27:25;;;;;;;11.80;6.43;;;;;;;9.02;98.07;102094.72;2086135;28;20239;-67
2024/02/02 01:28:25;;;;;;;10.33;6.77;;;;;;;8.62;98.35;102028.50;2085073;28;20665;-67
2024/02/02 01:29:26;;;;;;;12.60;6.40;;;;;;;8.98;99.20;102102.19;2085479;28;20580;-67
2024/02/02 01:30:29;;;;;;;13.17;6.40;;;;;;;9.00;99.11;102088.78;2088133;28;20186;-67
2024/02/02 01:31:30;;;;;;;13.27;6.70;;;;;;;9.00;98.99;102083.25;2086269;28;20224;-67
2024/02/02 01:32:30;;;;;;;11.60;7.37;;;;;;;9.03;99.35;102082.47;2086081;28;20187;-67
2024/02/02 01:33:31;;;;;;;13.57;6.80;;;;;;;9.05;99.42;102087.63;2085422;28;20277;-67
2024/02/02 01:34:31;;;;;;;11.63;6.80;;;;;;;9.05;99.40;102076.56;2084604;28;20398;-67
2024/02/02 01:35:32;;;;;;;11.47;6.97;;;;;;;9.00;99.85;102085.22;2085613;28;20193;-67
2024/02/02 01:36:33;;;;;;;13.83;7.63;;;;;;;8.23;100.00;101961.19;2088231;28;20273;-67
2024/02/02 01:37:34;;;;;;;11.55;7.13;;;;;;;7.77;100.00;101885.50;2085044;28;20299;-67
2024/02/02 01:38:34;;;;;;;14.57;7.33;;;;;;;9.03;100.00;102082.47;2085324;28;20201;-67
2024/02/02 01:39:35;;;;;;;13.13;7.20;;;;;;;8.95;100.00;102080.84;2085908;28;20725;-67
2024/02/02 01:40:35;;;;;;;14.83;7.23;;;;;;;8.39;100.00;101974.69;2085752;28;20200;-67
2024/02/02 01:41:37;;;;;;;15.17;7.50;;;;;;;9.05;100.00;102085.66;2085973;28;20263;-67
2024/02/02 01:42:38;;;;;;;11.35;6.72;;;;;;;9.06;100.00;102083.66;2088279;28;20190;-67
2024/02/02 01:43:39;;;;;;;13.73;7.47;;;;;;;9.12;100.00;102098.75;2086966;28;20728;-67
2024/02/02 01:44:40;;;;;;;11.67;6.87;;;;;;;9.09;100.00;102100.31;2085862;28;20666;-67
2024/02/02 01:45:41;;;;;;;14.80;7.43;;;;;;;9.01;100.00;102092.31;2086198;28;20229;-67
2024/02/02 01:46:46;;;;;;;13.60;7.63;;;;;;;9.05;100.00;102095.91;2085520;28;20447;-66
2024/02/02 01:47:47;;;;;;;13.47;7.37;;;;;;;9.07;100.00;102097.13;2085556;28;20166;-67
2024/02/02 01:48:47;;;;;;;13.07;7.07;;;;;;;9.05;100.00;102112.50;2085404;28;20424;-67
2024/02/02 01:49:48;;;;;;;13.23;7.97;;;;;;;9.02;100.00;102097.47;2088231;28;20178;-67
2024/02/02 01:50:49;;;;;;;12.67;7.70;;;;;;;8.99;100.00;102103.00;2086100;28;20243;-67
2024/02/02 01:51:49;;;;;;;12.60;7.20;;;;;;;8.96;100.00;102098.25;2085447;28;20273;-67
2024/02/02 01:52:50;;;;;;;17.53;8.20;;;;;;;8.94;100.00;102106.13;2085673;28;20646;-67
2024/02/02 01:53:52;;;;;;;13.07;7.03;;;;;;;8.45;100.00;102051.31;2084969;28;20186;-67
2024/02/02 01:54:52;;;;;;;13.33;7.73;;;;;;;8.94;100.00;102104.16;2085265;28;20282;-67
2024/02/02 01:55:53;;;;;;;13.53;7.20;;;;;;;8.98;100.00;102123.53;2088182;28;20430;-67
2024/02/02 01:56:54;;;;;;;11.40;7.40;;;;;;;8.98;100.00;102104.19;2085688;28;20215;-67
2024/02/02 01:57:55;;;;;;;11.30;6.87;;;;;;;8.94;100.00;102114.41;2085386;28;20187;-67
2024/02/02 01:58:56;;;;;;;14.93;7.50;;;;;;;8.97;100.00;102099.84;2085219;28;20292;-67
2024/02/02 01:59:57;;;;;;;12.70;7.43;;;;;;;8.02;100.00;101961.00;2085838;28;20266;-67
2024/02/02 02:00:57;;;;;;;11.73;6.90;;;;;;;8.93;100.00;102116.41;2085788;28;20424;-68
2024/02/02 02:01:58;;;;;;;11.87;7.30;;;;;;;8.91;100.00;102113.22;2088332;28;20185;-67
2024/02/02 02:02:59;;;;;;;13.10;7.93;;;;;;;8.90;100.00;102110.84;2085370;28;20189;-67
2024/02/02 02:04:00;;;;;;;12.37;6.63;;;;;;;8.16;100.00;102008.03;2084693;28;20257;-67
2024/02/02 02:05:00;;;;;;;12.57;7.60;;;;;;;8.88;100.00;102118.72;2085637;28;20532;-67
2024/02/02 02:06:01;;;;;;;15.50;8.57;;;;;;;8.89;100.00;102118.34;2085308;28;25029;-67
2024/02/02 02:07:05;;;;;;;10.47;6.93;;;;;;;8.90;100.00;102131.00;2085410;28;20238;-67
2024/02/02 02:08:06;;;;;;;13.98;7.22;;;;;;;8.77;100.00;102098.53;2087669;28;20189;-67
2024/02/02 02:09:10;;;;;;;10.60;6.68;;;;;;;8.94;100.00;102125.47;2085648;28;20632;-67
2024/02/02 02:10:12;;;;;;;10.25;7.15;;;;;;;8.14;100.00;102004.06;2084986;28;20203;-67
2024/02/02 02:11:12;;;;;;;15.40;7.72;;;;;;;8.69;100.00;102074.75;2085888;28;20215;-67
2024/02/02 02:12:13;;;;;;;12.17;7.70;;;;;;;8.99;100.00;102128.69;2085324;28;20195;-67
2024/02/02 02:13:14;;;;;;;13.77;7.50;;;;;;;9.05;100.00;102129.91;2085137;28;20263;-68
2024/02/02 02:14:14;;;;;;;15.13;7.90;;;;;;;8.99;100.00;102136.19;2085639;28;20178;-67
2024/02/02 02:15:15;;;;;;;14.03;7.53;;;;;;;8.95;100.00;102127.06;2088257;28;20180;-67
2024/02/02 02:16:16;;;;;;;12.63;8.37;;;;;;;8.41;100.00;102044.94;2086055;28;20193;-67
2024/02/02 02:17:16;;;;;;;11.23;6.73;;;;;;;9.09;100.00;102122.44;2085088;28;20581;-67
2024/02/02 02:18:17;;;;;;;14.10;7.73;;;;;;;8.95;100.00;102119.56;2085252;28;20186;-67
2024/02/02 02:19:18;;;;;;;16.13;8.23;;;;;;;9.09;100.00;102132.69;2085318;28;20190;-67
2024/02/02 02:20:25;;;;;;;12.50;8.03;;;;;;;8.98;100.00;102120.78;2086200;28;20185;-67
2024/02/02 02:21:27;;;;;;;14.73;8.20;;;;;;;9.04;100.00;102141.34;2088165;28;20186;-67
2024/02/02 02:22:27;;;;;;;17.00;8.57;;;;;;;9.02;100.00;102132.66;2086146;28;21095;-67
2024/02/02 02:23:28;;;;;;;13.20;8.53;;;;;;;9.09;100.00;102127.97;2086144;28;20485;-67
2024/02/02 02:24:28;;;;;;;12.30;8.00;;;;;;;9.05;100.00;102131.88;2085051;28;20199;-67
2024/02/02 02:25:30;;;;;;;10.83;6.87;;;;;;;9.03;100.00;102121.19;2085453;28;20258;-67
2024/02/02 02:26:32;;;;;;;13.02;8.07;;;;;;;8.66;100.00;102059.72;2085566;28;20544;-67
2024/02/02 02:27:32;;;;;;;15.17;8.30;;;;;;;9.20;100.00;102128.81;2087286;28;20240;-67
2024/02/02 02:28:33;;;;;;;11.43;8.13;;;;;;;9.22;100.00;102134.75;2086319;28;20935;-67
2024/02/02 02:29:34;;;;;;;13.77;8.53;;;;;;;9.20;100.00;102123.28;2085766;28;20284;-67
2024/02/02 02:30:34;;;;;;;13.30;8.43;;;;;;;9.23;100.00;102127.25;2085345;28;20191;-67
2024/02/02 02:31:35;;;;;;;11.27;7.53;;;;;;;9.28;100.00;102132.41;2085454;28;20711;-67
2024/02/02 02:32:35;;;;;;;14.20;9.03;;;;;;;9.29;100.00;102139.53;2085421;28;20265;-67
2024/02/02 02:33:37;;;;;;;13.90;8.63;;;;;;;9.26;100.00;102141.09;2087897;28;20248;-67
2024/02/02 02:34:37;;;;;;;12.37;7.70;;;;;;;9.31;100.00;102131.63;2086590;28;20190;-67
2024/02/02 02:35:38;;;;;;;14.37;7.70;;;;;;;9.30;100.00;102125.31;2085783;28;20464;-67
2024/02/02 02:36:39;;;;;;;12.90;8.47;;;;;;;9.31;100.00;102128.84;2085412;28;20199;-67
2024/02/02 02:37:39;;;;;;;12.53;8.33;;;;;;;9.30;100.00;102132.81;2086046;28;20219;-67
2024/02/02 02:38:40;;;;;;;13.50;8.23;;;;;;;9.29;100.00;102134.81;2084540;28;21155;-67
2024/02/02 02:39:40;;;;;;;12.63;7.33;;;;;;;9.23;100.00;102125.25;2087672;28;20858;-67
2024/02/02 02:40:41;;;;;;;12.80;7.10;;;;;;;9.16;100.00;102118.88;2086111;28;20511;-67
2024/02/02 02:41:41;;;;;;;12.33;7.33;;;;;;;9.22;100.00;102133.97;2085964;28;20198;-67
2024/02/02 02:42:42;;;;;;;12.70;7.43;;;;;;;8.83;100.00;102063.81;2085487;28;20715;-67
2024/02/02 02:43:43;;;;;;;10.47;6.63;;;;;;;9.13;100.00;102127.97;2085870;28;20640;-67
2024/02/02 02:44:43;;;;;;;11.33;7.60;;;;;;;8.19;100.00;101995.41;2085078;28;20199;-67
2024/02/02 02:45:44;;;;;;;11.03;6.77;;;;;;;8.97;100.00;102119.97;2087259;28;20187;-67
2024/02/02 02:46:44;;;;;;;9.17;5.67;;;;;;;9.00;100.00;102119.22;2086328;28;20687;-67
2024/02/02 02:47:45;;;;;;;10.43;6.23;;;;;;;8.95;100.00;102116.81;2084957;28;20197;-67
2024/02/02 02:48:46;;;;;;;11.00;5.97;;;;;;;8.94;100.00;102115.22;2084921;28;20614;-67
2024/02/02 02:49:46;;;;;;;10.97;5.73;;;;;;;8.90;100.00;102111.63;2084892;28;20278;-67
2024/02/02 02:50:47;;;;;;;10.80;5.67;;;;;;;8.93;100.00;102119.19;2085443;28;20559;-67
2024/02/02 02:51:48;;;;;;;7.67;5.13;;;;;;;8.21;100.00;101999.41;2087979;28;20186;-67
2024/02/02 02:52:48;;;;;;;8.93;5.63;;;;;;;8.97;100.00;102113.66;2085724;28;20581;-67
2024/02/02 02:53:49;;;;;;;10.13;5.50;;;;;;;8.87;100.00;102136.50;2085627;28;20190;-67
2024/02/02 02:54:49;;;;;;;10.60;6.10;;;;;;;8.88;100.00;102115.97;2085186;28;20203;-66
2024/02/02 02:55:50;;;;;;;8.47;5.33;;;;;;;8.84;100.00;102120.66;2085762;28;20281;-67
2024/02/02 02:56:51;;;;;;;11.83;5.50;;;;;;;8.78;100.00;102123.00;2085342;28;20188;-68
2024/02/02 02:57:53;;;;;;;8.70;6.07;;;;;;;8.77;100.00;102118.63;2087975;28;20246;-67
2024/02/02 02:58:53;;;;;;;9.90;5.77;;;;;;;8.71;100.00;102120.19;2086202;28;20699;-67
2024/02/02 02:59:54;;;;;;;11.20;6.07;;;;;;;8.74;100.00;102122.19;2085533;28;20874;-67
2024/02/02 03:00:54;;;;;;;9.40;5.73;;;;;;;8.77;100.00;102126.94;2084697;28;20220;-67
2024/02/02 03:01:55;;;;;;;10.07;5.83;;;;;;;8.77;100.00;102123.41;2085758;28;20284;-67
2024/02/02 03:02:56;;;;;;;8.98;5.63;;;;;;;8.73;100.00;102120.59;2085344;28;20240;-67
2024/02/02 03:03:57;;;;;;;10.60;6.00;;;;;;;8.73;100.00;102120.59;2086946;28;20184;-67
2024/02/02 03:04:57;;;;;;;7.73;5.27;;;;;;;8.76;100.00;102121.81;2086991;28;20685;-67
2024/02/02 03:05:58;;;;;;;10.13;5.27;;;;;;;8.77;100.00;102112.34;2086968;28;20184;-67
2024/02/02 03:07:00;;;;;;;9.40;5.53;;;;;;;8.78;100.00;102120.25;2086978;28;20446;-67
2024/02/02 03:08:00;;;;;;;8.57;5.38;;;;;;;8.80;100.00;102117.09;2086876;28;20712;-67
2024/02/02 03:09:03;;;;;;;8.60;5.87;;;;;;;8.81;100.00;102118.69;2086769;28;20593;-67
2024/02/02 03:10:04;;;;;;;8.55;5.40;;;;;;;8.57;100.00;102102.72;2087576;28;20263;-67
2024/02/02 03:11:04;;;;;;;10.13;6.17;;;;;;;8.76;100.00;102119.81;2089370;28;20188;-67
2024/02/02 03:12:05;;;;;;;11.47;6.30;;;;;;;8.33;100.00;102064.63;2087514;28;20195;-66
2024/02/02 03:13:06;;;;;;;9.80;6.03;;;;;;;8.68;100.00;102109.91;2086941;28;20187;-67
2024/02/02 03:14:06;;;;;;;10.97;5.57;;;;;;;8.63;100.00;102109.47;2086783;28;20202;-67
2024/02/02 03:15:07;;;;;;;9.90;6.00;;;;;;;8.68;100.00;102111.88;2086898;28;20186;-67
2024/02/02 03:16:08;;;;;;;10.70;6.03;;;;;;;8.69;100.00;102122.53;2086517;28;20218;-67
2024/02/02 03:17:09;;;;;;;9.50;5.63;;;;;;;8.69;100.00;102113.44;2088454;28;20964;-67
2024/02/02 03:18:11;;;;;;;8.77;5.90;;;;;;;8.62;100.00;102102.34;2086306;28;20203;-67
2024/02/02 03:19:11;;;;;;;9.73;5.90;;;;;;;8.60;100.00;102118.50;2086969;28;20200;-67
2024/02/02 03:20:12;;;;;;;9.57;6.63;;;;;;;8.59;100.00;102114.97;2087037;28;20443;-67
2024/02/02 03:21:13;;;;;;;12.50;6.50;;;;;;;8.54;100.00;102123.63;2086533;28;20267;-67
2024/02/02 03:22:13;;;;;;;10.37;6.07;;;;;;;8.27;100.00;102077.19;2087213;28;20187;-67
2024/02/02 03:23:14;;;;;;;9.53;6.07;;;;;;;8.54;100.00;102122.81;2088917;28;20181;-67
2024/02/02 03:24:14;;;;;;;11.27;6.43;;;;;;;8.49;100.00;102125.91;2086387;28;20271;-67
2024/02/02 03:25:15;;;;;;;11.07;6.50;;;;;;;8.51;100.00;102118.84;2087429;28;20316;-67
2024/02/02 03:26:15;;;;;;;9.97;6.67;;;;;;;8.44;100.00;102129.03;2087522;28;20273;-67
2024/02/02 03:27:16;;;;;;;11.90;6.00;;;;;;;8.41;100.00;102132.56;2086814;28;20268;-67
2024/02/02 03:28:16;;;;;;;11.57;6.13;;;;;;;8.42;100.00;102131.41;2086667;28;20187;-67
2024/02/02 03:29:17;;;;;;;11.20;6.97;;;;;;;7.36;100.00;101955.66;2088736;28;20205;-67
2024/02/02 03:30:18;;;;;;;11.47;5.97;;;;;;;8.26;100.00;102101.25;2086593;28;20212;-67
2024/02/02 03:31:19;;;;;;;12.27;7.00;;;;;;;8.50;100.00;102141.34;2087174;28;20187;-67
2024/02/02 03:32:19;;;;;;;11.17;6.63;;;;;;;8.52;100.00;102131.50;2087018;28;20493;-67
2024/02/02 03:33:20;;;;;;;10.13;6.13;;;;;;;8.35;100.00;102121.06;2085664;28;20582;-67
2024/02/02 03:34:20;;;;;;;10.53;6.40;;;;;;;8.40;100.00;102123.47;2086094;28;20236;-67
2024/02/02 03:35:21;;;;;;;10.50;5.93;;;;;;;8.02;100.00;102073.38;2088330;28;20203;-67
2024/02/02 03:36:21;;;;;;;11.33;6.57;;;;;;;8.50;100.00;102141.34;2087087;28;20228;-67
2024/02/02 03:37:22;;;;;;;11.77;5.67;;;;;;;8.30;100.00;102115.91;2086522;28;20288;-67
2024/02/02 03:38:23;;;;;;;10.93;6.70;;;;;;;8.47;100.00;102150.38;2087048;28;20193;-67
2024/02/02 03:39:23;;;;;;;11.90;6.60;;;;;;;8.25;100.00;102105.19;2085757;28;20270;-67
2024/02/02 03:40:24;;;;;;;11.23;5.87;;;;;;;8.40;100.00;102167.69;2086964;28;20184;-67
2024/02/02 03:41:24;;;;;;;14.33;6.60;;;;;;;8.40;100.00;102142.03;2104144;28;20180;-67
2024/02/02 03:42:25;;;;;;;10.80;6.23;;;;;;;8.43;100.00;102144.03;2096495;28;20962;-67
2024/02/02 03:43:26;;;;;;;14.07;6.17;;;;;;;7.78;100.00;102060.94;2086360;28;20193;-67
2024/02/02 03:44:26;;;;;;;10.10;6.10;;;;;;;7.53;100.00;102018.50;2086770;28;20194;-67
2024/02/02 03:45:27;;;;;;;8.70;5.70;;;;;;;8.45;100.00;102149.97;2085966;28;20524;-67
2024/02/02 03:46:27;;;;;;;9.37;5.63;;;;;;;8.49;100.00;102151.59;2087663;28;20654;-67
2024/02/02 03:47:28;;;;;;;10.47;6.00;;;;;;;8.51;100.00;102159.50;2088019;28;20223;-67
2024/02/02 03:48:28;;;;;;;10.03;6.60;;;;;;;8.46;100.00;102152.34;2085992;28;20748;-67
2024/02/02 03:49:29;;;;;;;9.17;5.63;;;;;;;8.05;100.00;102081.69;2086382;28;20629;-67
2024/02/02 03:50:29;;;;;;;10.80;6.17;;;;;;;8.50;100.00;102155.94;2086765;28;20207;-67
2024/02/02 03:51:30;;;;;;;10.73;6.00;;;;;;;7.93;100.00;102078.41;2085961;28;20219;-67
2024/02/02 03:52:30;;;;;;;12.30;5.90;;;;;;;8.41;100.00;102158.22;2086595;28;20683;-67
2024/02/02 03:53:31;;;;;;;10.23;6.30;;;;;;;8.25;100.00;102132.81;2080092;28;20247;-67
2024/02/02 03:54:32;;;;;;;9.83;5.47;;;;;;;8.45;100.00;102164.56;2085559;28;20210;-67
2024/02/02 03:55:33;;;;;;;9.52;5.65;;;;;;;8.44;100.00;102160.22;2086510;28;20622;-67
2024/02/02 03:56:33;;;;;;;11.10;6.27;;;;;;;8.42;100.00;102159.81;2085956;28;20195;-67
2024/02/02 03:57:34;;;;;;;8.57;5.67;;;;;;;8.34;100.00;102152.63;2086242;28;20196;-67
2024/02/02 03:58:35;;;;;;;9.83;5.77;;;;;;;8.45;100.00;102169.31;2086720;28;20588;-67
2024/02/02 03:59:36;;;;;;;10.02;6.03;;;;;;;8.43;100.00;102161.41;2088297;28;20193;-67
2024/02/02 04:00:37;;;;;;;10.97;6.50;;;;;;;8.28;100.00;102139.53;2086039;28;20728;-67
2024/02/02 04:01:37;;;;;;;11.07;6.17;;;;;;;8.46;100.00;102171.69;2086700;28;20322;-67
2024/02/02 04:02:38;;;;;;;10.23;6.00;;;;;;;8.43;100.00;102166.13;2087041;28;20282;-67
2024/02/02 04:03:39;;;;;;;10.53;5.53;;;;;;;8.38;100.00;102163.72;2087082;28;20189;-67
2024/02/02 04:04:39;;;;;;;9.67;5.93;;;;;;;8.30;100.00;102153.78;2087049;28;20187;-67
2024/02/02 04:05:41;;;;;;;10.53;5.47;;;;;;;8.14;100.00;102134.66;2088602;28;20245;-67
2024/02/02 04:06:41;;;;;;;9.93;5.67;;;;;;;8.30;100.00;102175.88;2086703;28;20198;-67
2024/02/02 04:07:42;;;;;;;10.23;6.17;;;;;;;8.28;100.00;102167.16;2086021;28;20433;-67
2024/02/02 04:08:42;;;;;;;12.00;6.17;;;;;;;8.32;100.00;102159.72;2086180;28;20207;-67
2024/02/02 04:09:43;;;;;;;8.63;5.93;;;;;;;8.27;100.00;102155.34;2086422;28;20200;-67
2024/02/02 04:10:44;;;;;;;10.27;6.07;;;;;;;8.31;100.00;102158.91;2086957;28;20173;-67
2024/02/02 04:11:44;;;;;;;9.73;6.23;;;;;;;8.14;100.00;102142.94;2088663;28;20713;-67
2024/02/02 04:12:45;;;;;;;9.23;6.00;;;;;;;8.13;100.00;102152.41;2086854;28;20573;-67
2024/02/02 04:13:45;;;;;;;8.27;5.37;;;;;;;8.14;100.00;102144.88;2085851;28;20220;-67
2024/02/02 04:14:46;;;;;;;10.37;6.20;;;;;;;8.11;100.00;102146.44;2085571;28;20768;-67
2024/02/02 04:15:47;;;;;;;8.43;5.40;;;;;;;8.17;100.00;102155.19;2086596;28;20213;-67
2024/02/02 04:16:47;;;;;;;11.03;6.40;;;;;;;8.21;100.00;102156.06;2086698;28;20378;-67
2024/02/02 04:17:48;;;;;;;8.60;6.30;;;;;;;8.18;100.00;102159.53;2087935;28;20642;-67
2024/02/02 04:18:49;;;;;;;8.53;5.47;;;;;;;7.66;100.00;102090.75;2086447;28;20240;-67
2024/02/02 04:19:49;;;;;;;9.70;5.97;;;;;;;8.09;100.00;102159.06;2086401;28;20681;-67
2024/02/02 04:20:52;;;;;;;10.67;6.20;;;;;;;8.08;100.00;102169.31;2085952;28;20194;-67
2024/02/02 04:21:53;;;;;;;9.80;5.70;;;;;;;8.09;100.00;102170.13;2086669;28;20448;-67
2024/02/02 04:22:54;;;;;;;11.57;7.07;;;;;;;8.01;100.00;102174.75;2086519;28;20258;-67
2024/02/02 04:23:54;;;;;;;9.43;5.83;;;;;;;8.02;100.00;102167.25;2088980;28;20277;-67
2024/02/02 04:24:55;;;;;;;10.43;6.70;;;;;;;7.63;100.00;102114.38;2085916;28;20233;-67
2024/02/02 04:25:55;;;;;;;11.13;6.13;;;;;;;8.00;100.00;102173.16;2086884;28;20188;-67
2024/02/02 04:26:56;;;;;;;11.23;6.13;;;;;;;8.01;100.00;102166.47;2086369;28;20643;-67
2024/02/02 04:27:57;;;;;;;7.93;5.27;;;;;;;8.04;100.00;102168.47;2086456;28;20255;-67
2024/02/02 04:28:57;;;;;;;13.43;6.40;;;;;;;7.88;100.00;102153.28;2086409;28;20206;-67
2024/02/02 04:29:58;;;;;;;9.93;5.93;;;;;;;7.98;100.00;102169.19;2087973;28;20427;-67
2024/02/02 04:30:59;;;;;;;11.50;7.07;;;;;;;7.68;100.00;102122.31;2086054;28;20201;-67
2024/02/02 04:32:00;;;;;;;10.40;6.17;;;;;;;7.92;100.00;102167.94;2086893;28;20191;-67
2024/02/02 04:33:00;;;;;;;12.67;6.00;;;;;;;7.94;100.00;102169.13;2086389;28;20671;-67
2024/02/02 04:34:01;;;;;;;9.17;5.77;;;;;;;7.93;100.00;102172.28;2086262;28;20236;-67
2024/02/02 04:35:02;;;;;;;13.80;6.83;;;;;;;7.87;100.00;102151.69;2086415;28;20185;-67
2024/02/02 04:36:03;;;;;;;9.13;6.00;;;;;;;7.88;100.00;102158.81;2088056;28;20244;-67
2024/02/02 04:37:04;;;;;;;12.10;6.85;;;;;;;7.84;100.00;102164.28;2085968;28;20206;-67
2024/02/02 04:38:05;;;;;;;13.63;6.10;;;;;;;7.89;100.00;102163.94;2085805;28;20230;-67
2024/02/02 04:39:05;;;;;;;11.00;6.25;;;;;;;7.89;100.00;102163.19;2086590;28;20539;-67
2024/02/02 04:40:08;;;;;;;13.23;6.87;;;;;;;7.82;100.00;102163.06;2086345;28;20199;-66
2024/02/02 04:41:10;;;;;;;9.85;6.30;;;;;;;7.72;100.00;102141.66;2086049;28;20191;-68